sensor_id;sensor_type;location;lat;lon;timestamp;P1;durP1;ratioP1;P2;durP2;ratioP2
36185;SDS011;22228;53.222;7.446;2023-03-20T00:01:30;14.67;;;9.33;;
36185;SDS011;22228;53.222;7.446;2023-03-20T00:03:51;17.23;;;10.10;;
36185;SDS011;22228;53.222;7.446;2023-03-20T00:06:14;16.47;;;9.80;;
36185;SDS011;22228;53.222;7.446;2023-03-20T00:08:36;13.27;;;9.07;;
36185;SDS011;22228;53.222;7.446;2023-03-20T00:10:57;12.10;;;8.67;;
36185;SDS011;22228;53.222;7.446;2023-03-20T00:13:20;9.13;;;8.13;;
36185;SDS011;22228;53.222;7.446;2023-03-20T00:15:45;12.27;;;8.23;;
36185;SDS011;22228;53.222;7.446;2023-03-20T00:18:10;12.27;;;8.23;;
36185;SDS011;22228;53.222;7.446;2023-03-20T00:20:34;9.33;;;7.43;;
36185;SDS011;22228;53.222;7.446;2023-03-20T00:22:54;8.27;;;7.10;;
36185;SDS011;22228;53.222;7.446;2023-03-20T00:25:15;9.70;;;7.53;;
36185;SDS011;22228;53.222;7.446;2023-03-20T00:27:37;10.83;;;7.40;;
36185;SDS011;22228;53.222;7.446;2023-03-20T00:29:59;11.57;;;6.33;;
36185;SDS011;22228;53.222;7.446;2023-03-20T00:32:20;10.37;;;6.90;;
36185;SDS011;22228;53.222;7.446;2023-03-20T00:34:40;8.30;;;6.50;;
36185;SDS011;22228;53.222;7.446;2023-03-20T00:37:01;8.43;;;6.83;;
36185;SDS011;22228;53.222;7.446;2023-03-20T00:39:22;7.87;;;7.03;;
36185;SDS011;22228;53.222;7.446;2023-03-20T00:41:43;8.23;;;6.27;;
36185;SDS011;22228;53.222;7.446;2023-03-20T00:44:09;8.27;;;6.53;;
36185;SDS011;22228;53.222;7.446;2023-03-20T00:46:39;6.20;;;5.60;;
36185;SDS011;22228;53.222;7.446;2023-03-20T00:49:00;6.50;;;5.67;;
36185;SDS011;22228;53.222;7.446;2023-03-20T00:51:21;6.93;;;6.00;;
36185;SDS011;22228;53.222;7.446;2023-03-20T00:53:41;9.80;;;6.57;;
36185;SDS011;22228;53.222;7.446;2023-03-20T00:56:02;8.57;;;6.43;;
36185;SDS011;22228;53.222;7.446;2023-03-20T00:58:24;7.00;;;6.20;;
36185;SDS011;22228;53.222;7.446;2023-03-20T01:00:45;8.30;;;5.90;;
36185;SDS011;22228;53.222;7.446;2023-03-20T01:03:11;7.67;;;6.10;;
36185;SDS011;22228;53.222;7.446;2023-03-20T01:05:34;6.70;;;5.80;;
36185;SDS011;22228;53.222;7.446;2023-03-20T01:07:55;6.97;;;5.27;;
36185;SDS011;22228;53.222;7.446;2023-03-20T01:10:15;6.23;;;5.63;;
36185;SDS011;22228;53.222;7.446;2023-03-20T01:12:37;6.53;;;5.93;;
36185;SDS011;22228;53.222;7.446;2023-03-20T01:14:59;6.40;;;5.37;;
36185;SDS011;22228;53.222;7.446;2023-03-20T04:01:07;17.37;;;8.80;;
36185;SDS011;22228;53.222;7.446;2023-03-20T04:03:32;11.67;;;7.90;;
36185;SDS011;22228;53.222;7.446;2023-03-20T04:05:56;10.70;;;7.73;;
36185;SDS011;22228;53.222;7.446;2023-03-20T04:08:18;10.17;;;7.67;;
36185;SDS011;22228;53.222;7.446;2023-03-20T04:10:39;15.47;;;8.37;;
36185;SDS011;22228;53.222;7.446;2023-03-20T04:13:01;11.20;;;8.17;;
36185;SDS011;22228;53.222;7.446;2023-03-20T04:15:21;16.37;;;8.03;;
36185;SDS011;22228;53.222;7.446;2023-03-20T04:17:43;14.43;;;8.20;;
36185;SDS011;22228;53.222;7.446;2023-03-20T04:20:06;15.53;;;8.70;;
36185;SDS011;22228;53.222;7.446;2023-03-20T04:22:28;14.00;;;9.07;;
36185;SDS011;22228;53.222;7.446;2023-03-20T04:24:55;15.10;;;8.40;;
36185;SDS011;22228;53.222;7.446;2023-03-20T04:27:19;15.77;;;9.20;;
36185;SDS011;22228;53.222;7.446;2023-03-20T04:29:39;13.80;;;8.43;;
36185;SDS011;22228;53.222;7.446;2023-03-20T04:32:20;17.33;;;9.57;;
36185;SDS011;22228;53.222;7.446;2023-03-20T04:34:56;16.00;;;10.00;;
36185;SDS011;22228;53.222;7.446;2023-03-20T04:37:39;15.10;;;10.33;;
36185;SDS011;22228;53.222;7.446;2023-03-20T04:39:59;14.13;;;9.80;;
36185;SDS011;22228;53.222;7.446;2023-03-20T04:42:20;16.20;;;10.00;;
36185;SDS011;22228;53.222;7.446;2023-03-20T04:44:42;20.73;;;10.83;;
36185;SDS011;22228;53.222;7.446;2023-03-20T04:47:02;22.07;;;11.33;;
36185;SDS011;22228;53.222;7.446;2023-03-20T04:49:25;14.13;;;10.30;;
36185;SDS011;22228;53.222;7.446;2023-03-20T04:51:47;14.37;;;10.87;;
36185;SDS011;22228;53.222;7.446;2023-03-20T04:54:13;17.43;;;10.80;;
36185;SDS011;22228;53.222;7.446;2023-03-20T04:56:35;15.90;;;10.37;;
36185;SDS011;22228;53.222;7.446;2023-03-20T04:59:04;15.37;;;11.27;;
36185;SDS011;22228;53.222;7.446;2023-03-20T05:01:24;16.17;;;10.40;;
36185;SDS011;22228;53.222;7.446;2023-03-20T05:03:44;20.00;;;11.90;;
36185;SDS011;22228;53.222;7.446;2023-03-20T05:06:05;16.73;;;10.23;;
36185;SDS011;22228;53.222;7.446;2023-03-20T05:08:27;13.47;;;9.80;;
36185;SDS011;22228;53.222;7.446;2023-03-20T05:10:52;14.47;;;9.90;;
36185;SDS011;22228;53.222;7.446;2023-03-20T05:13:32;15.03;;;10.33;;
36185;SDS011;22228;53.222;7.446;2023-03-20T05:16:07;14.20;;;9.83;;
36185;SDS011;22228;53.222;7.446;2023-03-20T05:18:54;11.30;;;9.83;;
36185;SDS011;22228;53.222;7.446;2023-03-20T05:21:33;13.53;;;10.47;;
36185;SDS011;22228;53.222;7.446;2023-03-20T05:24:22;13.77;;;10.50;;
36185;SDS011;22228;53.222;7.446;2023-03-20T05:26:55;14.70;;;10.77;;
36185;SDS011;22228;53.222;7.446;2023-03-20T05:29:36;19.47;;;10.37;;
36185;SDS011;22228;53.222;7.446;2023-03-20T05:32:32;13.43;;;10.43;;
36185;SDS011;22228;53.222;7.446;2023-03-20T05:35:01;16.10;;;10.70;;
36185;SDS011;22228;53.222;7.446;2023-03-20T05:37:54;18.53;;;11.40;;
36185;SDS011;22228;53.222;7.446;2023-03-20T05:40:30;14.97;;;11.03;;
36185;SDS011;22228;53.222;7.446;2023-03-20T05:43:08;12.67;;;10.30;;
36185;SDS011;22228;53.222;7.446;2023-03-20T05:45:42;15.77;;;11.30;;
36185;SDS011;22228;53.222;7.446;2023-03-20T05:48:15;16.57;;;11.33;;
36185;SDS011;22228;53.222;7.446;2023-03-20T05:50:49;17.20;;;11.30;;
36185;SDS011;22228;53.222;7.446;2023-03-20T05:53:28;15.90;;;11.23;;
36185;SDS011;22228;53.222;7.446;2023-03-20T05:56:07;15.17;;;11.53;;
36185;SDS011;22228;53.222;7.446;2023-03-20T05:58:46;17.67;;;11.67;;
36185;SDS011;22228;53.222;7.446;2023-03-20T06:01:27;15.87;;;11.70;;
36185;SDS011;22228;53.222;7.446;2023-03-20T06:03:57;18.50;;;11.20;;
36185;SDS011;22228;53.222;7.446;2023-03-20T06:06:35;16.03;;;11.30;;
36185;SDS011;22228;53.222;7.446;2023-03-20T06:08:56;19.10;;;12.30;;
36185;SDS011;22228;53.222;7.446;2023-03-20T06:11:18;17.33;;;10.67;;
36185;SDS011;22228;53.222;7.446;2023-03-20T06:13:39;17.57;;;11.40;;
36185;SDS011;22228;53.222;7.446;2023-03-20T06:15:59;15.80;;;11.40;;
36185;SDS011;22228;53.222;7.446;2023-03-20T06:18:21;17.57;;;11.30;;
36185;SDS011;22228;53.222;7.446;2023-03-20T06:20:45;14.30;;;11.13;;
36185;SDS011;22228;53.222;7.446;2023-03-20T06:23:06;16.13;;;10.63;;
36185;SDS011;22228;53.222;7.446;2023-03-20T06:25:26;20.87;;;10.37;;
36185;SDS011;22228;53.222;7.446;2023-03-20T06:27:48;16.63;;;11.00;;
36185;SDS011;22228;53.222;7.446;2023-03-20T06:30:10;13.47;;;10.20;;
36185;SDS011;22228;53.222;7.446;2023-03-20T06:32:32;14.13;;;10.10;;
36185;SDS011;22228;53.222;7.446;2023-03-20T06:34:55;16.50;;;9.93;;
36185;SDS011;22228;53.222;7.446;2023-03-20T06:37:15;13.50;;;9.47;;
36185;SDS011;22228;53.222;7.446;2023-03-20T06:39:35;16.03;;;10.30;;
36185;SDS011;22228;53.222;7.446;2023-03-20T06:41:57;11.43;;;8.77;;
36185;SDS011;22228;53.222;7.446;2023-03-20T06:44:19;11.47;;;9.13;;
36185;SDS011;22228;53.222;7.446;2023-03-20T06:46:59;12.00;;;8.80;;
36185;SDS011;22228;53.222;7.446;2023-03-20T06:49:20;11.17;;;8.40;;
36185;SDS011;22228;53.222;7.446;2023-03-20T06:51:40;12.43;;;8.77;;
36185;SDS011;22228;53.222;7.446;2023-03-20T06:54:02;13.80;;;8.70;;
36185;SDS011;22228;53.222;7.446;2023-03-20T06:56:23;13.20;;;8.90;;
36185;SDS011;22228;53.222;7.446;2023-03-20T06:58:44;11.80;;;8.53;;
36185;SDS011;22228;53.222;7.446;2023-03-20T07:01:09;11.13;;;8.40;;
36185;SDS011;22228;53.222;7.446;2023-03-20T07:03:31;12.53;;;7.47;;
36185;SDS011;22228;53.222;7.446;2023-03-20T07:05:51;11.17;;;7.73;;
36185;SDS011;22228;53.222;7.446;2023-03-20T07:08:14;10.73;;;7.60;;
36185;SDS011;22228;53.222;7.446;2023-03-20T07:10:34;10.60;;;7.37;;
36185;SDS011;22228;53.222;7.446;2023-03-20T07:12:55;11.13;;;8.10;;
36185;SDS011;22228;53.222;7.446;2023-03-20T07:15:15;11.93;;;7.57;;
36185;SDS011;22228;53.222;7.446;2023-03-20T07:17:37;11.53;;;7.70;;
36185;SDS011;22228;53.222;7.446;2023-03-20T07:19:58;10.70;;;8.13;;
36185;SDS011;22228;53.222;7.446;2023-03-20T07:22:19;11.63;;;8.57;;
36185;SDS011;22228;53.222;7.446;2023-03-20T07:24:42;11.90;;;8.10;;
36185;SDS011;22228;53.222;7.446;2023-03-20T07:27:03;12.83;;;7.73;;
36185;SDS011;22228;53.222;7.446;2023-03-20T07:29:26;13.13;;;8.10;;
36185;SDS011;22228;53.222;7.446;2023-03-20T07:31:48;11.20;;;8.20;;
36185;SDS011;22228;53.222;7.446;2023-03-20T07:34:17;12.50;;;8.60;;
36185;SDS011;22228;53.222;7.446;2023-03-20T07:36:38;14.47;;;8.77;;
36185;SDS011;22228;53.222;7.446;2023-03-20T07:38:59;11.73;;;8.40;;
36185;SDS011;22228;53.222;7.446;2023-03-20T07:41:22;11.23;;;8.27;;
36185;SDS011;22228;53.222;7.446;2023-03-20T07:43:52;12.60;;;8.57;;
36185;SDS011;22228;53.222;7.446;2023-03-20T07:46:16;12.90;;;9.27;;
36185;SDS011;22228;53.222;7.446;2023-03-20T07:48:36;13.47;;;8.70;;
36185;SDS011;22228;53.222;7.446;2023-03-20T07:50:58;12.47;;;8.60;;
36185;SDS011;22228;53.222;7.446;2023-03-20T07:53:18;13.43;;;8.60;;
36185;SDS011;22228;53.222;7.446;2023-03-20T07:55:40;13.60;;;8.97;;
36185;SDS011;22228;53.222;7.446;2023-03-20T07:58:03;9.20;;;8.17;;
36185;SDS011;22228;53.222;7.446;2023-03-20T08:00:25;13.37;;;8.93;;
36185;SDS011;22228;53.222;7.446;2023-03-20T08:02:45;12.50;;;8.40;;
36185;SDS011;22228;53.222;7.446;2023-03-20T08:05:06;10.40;;;8.23;;
36185;SDS011;22228;53.222;7.446;2023-03-20T08:07:29;13.20;;;9.17;;
36185;SDS011;22228;53.222;7.446;2023-03-20T08:09:49;14.43;;;8.67;;
36185;SDS011;22228;53.222;7.446;2023-03-20T08:12:10;9.37;;;8.30;;
36185;SDS011;22228;53.222;7.446;2023-03-20T08:14:30;10.83;;;8.63;;
36185;SDS011;22228;53.222;7.446;2023-03-20T08:16:51;12.77;;;8.50;;
36185;SDS011;22228;53.222;7.446;2023-03-20T08:19:11;11.10;;;8.30;;
36185;SDS011;22228;53.222;7.446;2023-03-20T08:21:32;11.30;;;8.10;;
36185;SDS011;22228;53.222;7.446;2023-03-20T08:23:54;9.13;;;8.10;;
36185;SDS011;22228;53.222;7.446;2023-03-20T08:26:14;10.83;;;8.73;;
36185;SDS011;22228;53.222;7.446;2023-03-20T08:28:35;11.47;;;8.60;;
36185;SDS011;22228;53.222;7.446;2023-03-20T08:30:56;11.07;;;8.07;;
36185;SDS011;22228;53.222;7.446;2023-03-20T08:33:17;14.77;;;8.53;;
36185;SDS011;22228;53.222;7.446;2023-03-20T08:35:38;10.67;;;8.10;;
36185;SDS011;22228;53.222;7.446;2023-03-20T08:37:58;12.47;;;8.50;;
36185;SDS011;22228;53.222;7.446;2023-03-20T08:40:20;12.00;;;8.80;;
36185;SDS011;22228;53.222;7.446;2023-03-20T08:42:40;9.27;;;8.27;;
36185;SDS011;22228;53.222;7.446;2023-03-20T08:45:01;12.53;;;8.30;;
36185;SDS011;22228;53.222;7.446;2023-03-20T08:47:21;12.17;;;8.73;;
36185;SDS011;22228;53.222;7.446;2023-03-20T08:49:42;9.30;;;8.13;;
36185;SDS011;22228;53.222;7.446;2023-03-20T08:52:03;13.33;;;8.40;;
36185;SDS011;22228;53.222;7.446;2023-03-20T08:54:23;13.87;;;9.03;;
36185;SDS011;22228;53.222;7.446;2023-03-20T08:56:45;9.73;;;7.83;;
36185;SDS011;22228;53.222;7.446;2023-03-20T08:59:06;12.13;;;8.30;;
36185;SDS011;22228;53.222;7.446;2023-03-20T09:01:26;11.23;;;7.73;;
36185;SDS011;22228;53.222;7.446;2023-03-20T09:03:47;10.37;;;7.67;;
36185;SDS011;22228;53.222;7.446;2023-03-20T09:06:08;10.47;;;7.90;;
36185;SDS011;22228;53.222;7.446;2023-03-20T09:08:29;11.13;;;7.63;;
36185;SDS011;22228;53.222;7.446;2023-03-20T09:10:51;9.43;;;7.03;;
36185;SDS011;22228;53.222;7.446;2023-03-20T09:13:13;9.63;;;7.57;;
36185;SDS011;22228;53.222;7.446;2023-03-20T09:15:33;11.97;;;7.73;;
36185;SDS011;22228;53.222;7.446;2023-03-20T09:17:54;11.07;;;7.37;;
36185;SDS011;22228;53.222;7.446;2023-03-20T09:20:14;9.83;;;7.43;;
36185;SDS011;22228;53.222;7.446;2023-03-20T09:22:35;8.30;;;6.50;;
36185;SDS011;22228;53.222;7.446;2023-03-20T09:24:55;10.57;;;7.30;;
36185;SDS011;22228;53.222;7.446;2023-03-20T09:27:15;10.37;;;7.53;;
36185;SDS011;22228;53.222;7.446;2023-03-20T09:29:37;10.47;;;7.67;;
36185;SDS011;22228;53.222;7.446;2023-03-20T09:31:58;10.60;;;7.50;;
36185;SDS011;22228;53.222;7.446;2023-03-20T09:34:18;9.77;;;7.40;;
36185;SDS011;22228;53.222;7.446;2023-03-20T09:36:38;9.53;;;7.50;;
36185;SDS011;22228;53.222;7.446;2023-03-20T09:38:59;10.17;;;7.63;;
36185;SDS011;22228;53.222;7.446;2023-03-20T09:41:20;10.67;;;7.20;;
36185;SDS011;22228;53.222;7.446;2023-03-20T09:43:47;11.57;;;7.33;;
36185;SDS011;22228;53.222;7.446;2023-03-20T09:46:21;9.23;;;6.90;;
36185;SDS011;22228;53.222;7.446;2023-03-20T09:48:53;12.17;;;7.50;;
36185;SDS011;22228;53.222;7.446;2023-03-20T09:51:22;8.60;;;7.27;;
36185;SDS011;22228;53.222;7.446;2023-03-20T09:53:48;8.37;;;6.57;;
36185;SDS011;22228;53.222;7.446;2023-03-20T09:56:13;9.00;;;7.13;;
36185;SDS011;22228;53.222;7.446;2023-03-20T09:58:38;9.10;;;7.10;;
36185;SDS011;22228;53.222;7.446;2023-03-20T10:01:02;11.37;;;7.40;;
36185;SDS011;22228;53.222;7.446;2023-03-20T10:03:26;8.97;;;7.23;;
36185;SDS011;22228;53.222;7.446;2023-03-20T10:05:53;9.80;;;6.67;;
36185;SDS011;22228;53.222;7.446;2023-03-20T10:08:16;10.40;;;6.33;;
36185;SDS011;22228;53.222;7.446;2023-03-20T10:10:45;11.97;;;7.10;;
36185;SDS011;22228;53.222;7.446;2023-03-20T10:13:19;9.00;;;6.53;;
36185;SDS011;22228;53.222;7.446;2023-03-20T10:15:53;12.17;;;6.63;;
36185;SDS011;22228;53.222;7.446;2023-03-20T10:18:20;11.43;;;7.07;;
36185;SDS011;22228;53.222;7.446;2023-03-20T10:20:47;10.73;;;6.67;;
36185;SDS011;22228;53.222;7.446;2023-03-20T10:23:15;9.13;;;7.00;;
36185;SDS011;22228;53.222;7.446;2023-03-20T10:25:41;7.17;;;5.73;;
36185;SDS011;22228;53.222;7.446;2023-03-20T10:28:05;7.07;;;5.17;;
36185;SDS011;22228;53.222;7.446;2023-03-20T10:30:32;11.27;;;6.47;;
36185;SDS011;22228;53.222;7.446;2023-03-20T10:33:11;11.83;;;6.37;;
36185;SDS011;22228;53.222;7.446;2023-03-20T10:35:44;7.40;;;5.00;;
36185;SDS011;22228;53.222;7.446;2023-03-20T10:38:18;7.07;;;4.93;;
36185;SDS011;22228;53.222;7.446;2023-03-20T10:40:49;6.93;;;4.93;;
36185;SDS011;22228;53.222;7.446;2023-03-20T10:43:13;9.47;;;5.20;;
36185;SDS011;22228;53.222;7.446;2023-03-20T10:45:38;8.30;;;5.20;;
36185;SDS011;22228;53.222;7.446;2023-03-20T10:48:01;8.03;;;4.83;;
36185;SDS011;22228;53.222;7.446;2023-03-20T10:50:27;8.70;;;4.97;;
36185;SDS011;22228;53.222;7.446;2023-03-20T10:52:52;11.10;;;5.93;;
36185;SDS011;22228;53.222;7.446;2023-03-20T10:55:15;7.03;;;5.47;;
36185;SDS011;22228;53.222;7.446;2023-03-20T10:57:39;6.50;;;4.87;;
36185;SDS011;22228;53.222;7.446;2023-03-20T11:00:06;7.67;;;4.77;;
36185;SDS011;22228;53.222;7.446;2023-03-20T11:02:33;5.97;;;4.97;;
36185;SDS011;22228;53.222;7.446;2023-03-20T11:04:54;9.07;;;5.57;;
36185;SDS011;22228;53.222;7.446;2023-03-20T11:07:17;7.83;;;5.33;;
36185;SDS011;22228;53.222;7.446;2023-03-20T11:09:44;8.80;;;4.97;;
36185;SDS011;22228;53.222;7.446;2023-03-20T11:12:04;7.20;;;5.07;;
36185;SDS011;22228;53.222;7.446;2023-03-20T11:14:35;8.87;;;5.17;;
36185;SDS011;22228;53.222;7.446;2023-03-20T11:16:59;8.30;;;5.13;;
36185;SDS011;22228;53.222;7.446;2023-03-20T11:19:21;7.23;;;5.47;;
36185;SDS011;22228;53.222;7.446;2023-03-20T11:21:44;8.80;;;5.67;;
36185;SDS011;22228;53.222;7.446;2023-03-20T11:24:10;7.87;;;5.30;;
36185;SDS011;22228;53.222;7.446;2023-03-20T11:26:44;7.33;;;5.20;;
36185;SDS011;22228;53.222;7.446;2023-03-20T11:29:04;6.57;;;5.67;;
36185;SDS011;22228;53.222;7.446;2023-03-20T11:31:28;8.10;;;6.13;;
36185;SDS011;22228;53.222;7.446;2023-03-20T11:33:52;10.10;;;5.77;;
36185;SDS011;22228;53.222;7.446;2023-03-20T11:36:28;9.03;;;6.07;;
36185;SDS011;22228;53.222;7.446;2023-03-20T11:38:51;8.07;;;5.70;;
36185;SDS011;22228;53.222;7.446;2023-03-20T11:41:18;10.63;;;6.87;;
36185;SDS011;22228;53.222;7.446;2023-03-20T11:43:44;8.90;;;5.93;;
36185;SDS011;22228;53.222;7.446;2023-03-20T11:46:05;10.37;;;6.83;;
36185;SDS011;22228;53.222;7.446;2023-03-20T11:48:35;9.43;;;6.43;;
36185;SDS011;22228;53.222;7.446;2023-03-20T11:50:58;12.43;;;7.20;;
36185;SDS011;22228;53.222;7.446;2023-03-20T11:53:24;8.60;;;6.87;;
36185;SDS011;22228;53.222;7.446;2023-03-20T11:55:56;8.90;;;6.37;;
36185;SDS011;22228;53.222;7.446;2023-03-20T11:58:22;8.13;;;5.93;;
36185;SDS011;22228;53.222;7.446;2023-03-20T12:00:46;7.83;;;6.37;;
36185;SDS011;22228;53.222;7.446;2023-03-20T12:05:53;9.40;;;6.93;;
36185;SDS011;22228;53.222;7.446;2023-03-20T12:08:20;9.57;;;6.30;;
36185;SDS011;22228;53.222;7.446;2023-03-20T12:10:45;10.17;;;6.60;;
36185;SDS011;22228;53.222;7.446;2023-03-20T12:13:13;8.77;;;6.03;;
36185;SDS011;22228;53.222;7.446;2023-03-20T12:15:38;10.00;;;6.67;;
36185;SDS011;22228;53.222;7.446;2023-03-20T12:18:04;10.57;;;8.03;;
36185;SDS011;22228;53.222;7.446;2023-03-20T12:20:33;9.17;;;7.43;;
36185;SDS011;22228;53.222;7.446;2023-03-20T12:22:59;8.40;;;7.50;;
36185;SDS011;22228;53.222;7.446;2023-03-20T12:25:25;9.33;;;8.00;;
36185;SDS011;22228;53.222;7.446;2023-03-20T12:27:51;12.10;;;8.07;;
36185;SDS011;22228;53.222;7.446;2023-03-20T12:30:15;11.53;;;8.33;;
36185;SDS011;22228;53.222;7.446;2023-03-20T12:32:40;10.50;;;8.00;;
36185;SDS011;22228;53.222;7.446;2023-03-20T12:35:09;12.77;;;8.97;;
36185;SDS011;22228;53.222;7.446;2023-03-20T12:37:32;12.17;;;8.33;;
36185;SDS011;22228;53.222;7.446;2023-03-20T12:39:53;9.90;;;7.07;;
36185;SDS011;22228;53.222;7.446;2023-03-20T12:42:17;11.17;;;7.77;;
36185;SDS011;22228;53.222;7.446;2023-03-20T12:44:53;12.27;;;7.87;;
36185;SDS011;22228;53.222;7.446;2023-03-20T12:47:39;11.63;;;7.73;;
36185;SDS011;22228;53.222;7.446;2023-03-20T12:50:19;10.83;;;7.33;;
36185;SDS011;22228;53.222;7.446;2023-03-20T12:52:46;9.27;;;7.77;;
36185;SDS011;22228;53.222;7.446;2023-03-20T12:55:19;10.90;;;6.77;;
36185;SDS011;22228;53.222;7.446;2023-03-20T12:57:46;11.03;;;7.90;;
36185;SDS011;22228;53.222;7.446;2023-03-20T13:00:17;12.60;;;7.70;;
36185;SDS011;22228;53.222;7.446;2023-03-20T13:02:46;12.10;;;8.87;;
36185;SDS011;22228;53.222;7.446;2023-03-20T13:05:24;10.40;;;8.23;;
36185;SDS011;22228;53.222;7.446;2023-03-20T13:08:00;12.73;;;8.63;;
36185;SDS011;22228;53.222;7.446;2023-03-20T13:10:31;12.37;;;8.13;;
36185;SDS011;22228;53.222;7.446;2023-03-20T13:12:58;10.83;;;7.33;;
36185;SDS011;22228;53.222;7.446;2023-03-20T13:15:29;8.97;;;6.80;;
36185;SDS011;22228;53.222;7.446;2023-03-20T13:18:00;10.33;;;5.57;;
36185;SDS011;22228;53.222;7.446;2023-03-20T13:20:29;8.33;;;5.43;;
36185;SDS011;22228;53.222;7.446;2023-03-20T13:25:35;5.17;;;4.67;;
36185;SDS011;22228;53.222;7.446;2023-03-20T13:28:12;7.30;;;4.03;;
36185;SDS011;22228;53.222;7.446;2023-03-20T13:30:39;6.10;;;4.60;;
36185;SDS011;22228;53.222;7.446;2023-03-20T13:33:07;11.47;;;5.80;;
36185;SDS011;22228;53.222;7.446;2023-03-20T13:35:40;10.90;;;6.60;;
36185;SDS011;22228;53.222;7.446;2023-03-20T13:38:06;8.63;;;6.43;;
36185;SDS011;22228;53.222;7.446;2023-03-20T13:40:34;9.33;;;6.53;;
36185;SDS011;22228;53.222;7.446;2023-03-20T13:42:59;11.67;;;6.90;;
36185;SDS011;22228;53.222;7.446;2023-03-20T13:45:30;12.37;;;7.57;;
36185;SDS011;22228;53.222;7.446;2023-03-20T13:47:54;9.33;;;6.73;;
36185;SDS011;22228;53.222;7.446;2023-03-20T13:50:23;9.43;;;6.97;;
36185;SDS011;22228;53.222;7.446;2023-03-20T13:53:02;11.10;;;6.23;;
36185;SDS011;22228;53.222;7.446;2023-03-20T13:55:34;11.77;;;5.30;;
36185;SDS011;22228;53.222;7.446;2023-03-20T13:58:05;7.67;;;5.27;;
36185;SDS011;22228;53.222;7.446;2023-03-20T14:00:37;9.63;;;5.73;;
36185;SDS011;22228;53.222;7.446;2023-03-20T14:03:04;7.70;;;6.13;;
36185;SDS011;22228;53.222;7.446;2023-03-20T14:05:37;8.53;;;6.20;;
36185;SDS011;22228;53.222;7.446;2023-03-20T14:07:58;7.73;;;6.83;;
36185;SDS011;22228;53.222;7.446;2023-03-20T14:10:41;9.93;;;6.93;;
36185;SDS011;22228;53.222;7.446;2023-03-20T14:13:03;13.67;;;7.97;;
36185;SDS011;22228;53.222;7.446;2023-03-20T14:15:36;10.60;;;8.37;;
36185;SDS011;22228;53.222;7.446;2023-03-20T14:18:01;11.77;;;9.50;;
36185;SDS011;22228;53.222;7.446;2023-03-20T14:20:25;11.93;;;9.90;;
36185;SDS011;22228;53.222;7.446;2023-03-20T14:22:48;13.53;;;11.00;;
36185;SDS011;22228;53.222;7.446;2023-03-20T14:25:16;15.17;;;10.97;;
36185;SDS011;22228;53.222;7.446;2023-03-20T14:27:51;12.83;;;11.50;;
36185;SDS011;22228;53.222;7.446;2023-03-20T14:32:57;12.23;;;10.40;;
36185;SDS011;22228;53.222;7.446;2023-03-20T14:35:23;11.07;;;9.93;;
36185;SDS011;22228;53.222;7.446;2023-03-20T14:37:53;15.10;;;10.40;;
36185;SDS011;22228;53.222;7.446;2023-03-20T14:40:32;15.50;;;10.53;;
36185;SDS011;22228;53.222;7.446;2023-03-20T14:42:58;13.57;;;9.93;;
36185;SDS011;22228;53.222;7.446;2023-03-20T14:45:30;15.13;;;10.37;;
36185;SDS011;22228;53.222;7.446;2023-03-20T14:47:57;15.53;;;10.53;;
36185;SDS011;22228;53.222;7.446;2023-03-20T14:50:24;11.90;;;10.73;;
36185;SDS011;22228;53.222;7.446;2023-03-20T14:52:52;11.47;;;9.77;;
36185;SDS011;22228;53.222;7.446;2023-03-20T14:55:28;10.63;;;8.23;;
36185;SDS011;22228;53.222;7.446;2023-03-20T14:57:52;7.40;;;6.70;;
36185;SDS011;22228;53.222;7.446;2023-03-20T15:00:17;7.73;;;6.93;;
36185;SDS011;22228;53.222;7.446;2023-03-20T15:02:39;8.30;;;6.70;;
36185;SDS011;22228;53.222;7.446;2023-03-20T15:05:02;8.57;;;6.90;;
36185;SDS011;22228;53.222;7.446;2023-03-20T15:07:25;9.23;;;6.50;;
36185;SDS011;22228;53.222;7.446;2023-03-20T15:09:48;8.73;;;5.87;;
36185;SDS011;22228;53.222;7.446;2023-03-20T15:12:12;9.30;;;6.13;;
36185;SDS011;22228;53.222;7.446;2023-03-20T15:14:36;7.03;;;6.00;;
36185;SDS011;22228;53.222;7.446;2023-03-20T15:17:01;10.23;;;7.13;;
36185;SDS011;22228;53.222;7.446;2023-03-20T15:19:22;7.87;;;6.97;;
36185;SDS011;22228;53.222;7.446;2023-03-20T15:21:43;10.67;;;6.47;;
36185;SDS011;22228;53.222;7.446;2023-03-20T15:24:06;8.63;;;6.63;;
36185;SDS011;22228;53.222;7.446;2023-03-20T15:26:26;9.10;;;5.63;;
36185;SDS011;22228;53.222;7.446;2023-03-20T15:28:50;6.10;;;5.60;;
36185;SDS011;22228;53.222;7.446;2023-03-20T15:31:19;6.45;;;5.82;;
36185;SDS011;22228;53.222;7.446;2023-03-20T15:33:42;7.07;;;6.37;;
36185;SDS011;22228;53.222;7.446;2023-03-20T15:36:06;9.80;;;6.33;;
36185;SDS011;22228;53.222;7.446;2023-03-20T15:38:29;7.70;;;5.50;;
36185;SDS011;22228;53.222;7.446;2023-03-20T15:40:52;8.17;;;5.53;;
36185;SDS011;22228;53.222;7.446;2023-03-20T15:43:14;7.67;;;5.20;;
36185;SDS011;22228;53.222;7.446;2023-03-20T15:45:39;8.07;;;5.57;;
36185;SDS011;22228;53.222;7.446;2023-03-20T15:48:03;8.17;;;4.90;;
36185;SDS011;22228;53.222;7.446;2023-03-20T15:50:24;8.13;;;5.67;;
36185;SDS011;22228;53.222;7.446;2023-03-20T15:52:45;8.03;;;4.77;;
36185;SDS011;22228;53.222;7.446;2023-03-20T15:55:11;7.13;;;5.60;;
36185;SDS011;22228;53.222;7.446;2023-03-20T15:57:36;8.00;;;5.77;;
36185;SDS011;22228;53.222;7.446;2023-03-20T15:59:58;5.80;;;5.20;;
36185;SDS011;22228;53.222;7.446;2023-03-20T16:02:20;6.87;;;5.80;;
36185;SDS011;22228;53.222;7.446;2023-03-20T16:04:42;7.87;;;5.90;;
36185;SDS011;22228;53.222;7.446;2023-03-20T16:07:17;6.70;;;5.93;;
36185;SDS011;22228;53.222;7.446;2023-03-20T16:09:41;8.13;;;6.63;;
36185;SDS011;22228;53.222;7.446;2023-03-20T16:12:02;8.90;;;7.17;;
36185;SDS011;22228;53.222;7.446;2023-03-20T16:14:33;7.83;;;7.10;;
36185;SDS011;22228;53.222;7.446;2023-03-20T16:16:54;9.27;;;8.20;;
36185;SDS011;22228;53.222;7.446;2023-03-20T16:19:18;8.57;;;7.53;;
36185;SDS011;22228;53.222;7.446;2023-03-20T16:21:39;10.60;;;7.03;;
36185;SDS011;22228;53.222;7.446;2023-03-20T16:24:05;42.03;;;32.73;;
36185;SDS011;22228;53.222;7.446;2023-03-20T16:26:27;10.70;;;8.00;;
36185;SDS011;22228;53.222;7.446;2023-03-20T16:28:48;10.00;;;7.40;;
36185;SDS011;22228;53.222;7.446;2023-03-20T16:31:11;9.23;;;8.07;;
36185;SDS011;22228;53.222;7.446;2023-03-20T16:33:35;10.10;;;7.90;;
36185;SDS011;22228;53.222;7.446;2023-03-20T16:35:59;8.50;;;7.53;;
36185;SDS011;22228;53.222;7.446;2023-03-20T16:38:22;9.83;;;7.30;;
36185;SDS011;22228;53.222;7.446;2023-03-20T16:40:45;11.07;;;7.53;;
36185;SDS011;22228;53.222;7.446;2023-03-20T16:43:11;7.77;;;6.97;;
36185;SDS011;22228;53.222;7.446;2023-03-20T16:45:33;9.60;;;7.33;;
36185;SDS011;22228;53.222;7.446;2023-03-20T16:48:08;8.17;;;7.50;;
36185;SDS011;22228;53.222;7.446;2023-03-20T16:50:44;9.83;;;8.03;;
36185;SDS011;22228;53.222;7.446;2023-03-20T16:53:13;9.80;;;8.03;;
36185;SDS011;22228;53.222;7.446;2023-03-20T16:55:35;8.73;;;7.90;;
36185;SDS011;22228;53.222;7.446;2023-03-20T16:58:02;9.47;;;8.50;;
36185;SDS011;22228;53.222;7.446;2023-03-20T17:00:26;10.33;;;8.87;;
36185;SDS011;22228;53.222;7.446;2023-03-20T17:02:49;10.90;;;9.67;;
36185;SDS011;22228;53.222;7.446;2023-03-20T17:05:12;13.00;;;9.67;;
36185;SDS011;22228;53.222;7.446;2023-03-20T17:07:32;12.50;;;10.77;;
36185;SDS011;22228;53.222;7.446;2023-03-20T17:09:56;12.43;;;10.30;;
36185;SDS011;22228;53.222;7.446;2023-03-20T17:12:17;11.57;;;10.47;;
36185;SDS011;22228;53.222;7.446;2023-03-20T17:14:38;16.43;;;11.67;;
36185;SDS011;22228;53.222;7.446;2023-03-20T17:16:59;17.83;;;12.60;;
36185;SDS011;22228;53.222;7.446;2023-03-20T17:19:19;13.33;;;11.67;;